sensor_id;sensor_type;location;lat;lon;timestamp;P1;durP1;ratioP1;P2;durP2;ratioP2
35074;SDS011;21260;34.984;32.490;2023-04-21T00:01:10;8.00;;;2.90;;
35074;SDS011;21260;34.984;32.490;2023-04-21T00:03:37;8.43;;;2.88;;
35074;SDS011;21260;34.984;32.490;2023-04-21T00:06:04;9.18;;;3.00;;
35074;SDS011;21260;34.984;32.490;2023-04-21T00:08:30;9.27;;;2.90;;
35074;SDS011;21260;34.984;32.490;2023-04-21T00:10:57;6.87;;;2.50;;
35074;SDS011;21260;34.984;32.490;2023-04-21T00:13:23;7.03;;;2.90;;
35074;SDS011;21260;34.984;32.490;2023-04-21T00:15:49;7.05;;;2.65;;
35074;SDS011;21260;34.984;32.490;2023-04-21T00:18:16;6.28;;;2.70;;
35074;SDS011;21260;34.984;32.490;2023-04-21T00:20:44;8.40;;;2.80;;
35074;SDS011;21260;34.984;32.490;2023-04-21T00:23:10;7.43;;;2.90;;
35074;SDS011;21260;34.984;32.490;2023-04-21T00:25:36;7.50;;;2.90;;
35074;SDS011;21260;34.984;32.490;2023-04-21T00:28:03;8.88;;;3.00;;
35074;SDS011;21260;34.984;32.490;2023-04-21T00:30:29;7.83;;;2.87;;
35074;SDS011;21260;34.984;32.490;2023-04-21T00:32:55;8.65;;;2.80;;
35074;SDS011;21260;34.984;32.490;2023-04-21T00:35:21;8.13;;;3.20;;
35074;SDS011;21260;34.984;32.490;2023-04-21T00:37:48;9.55;;;3.20;;
35074;SDS011;21260;34.984;32.490;2023-04-21T00:40:17;6.15;;;2.85;;
35074;SDS011;21260;34.984;32.490;2023-04-21T00:42:43;9.30;;;3.10;;
35074;SDS011;21260;34.984;32.490;2023-04-21T00:45:10;9.45;;;2.97;;
35074;SDS011;21260;34.984;32.490;2023-04-21T00:47:36;6.88;;;2.50;;
35074;SDS011;21260;34.984;32.490;2023-04-21T00:50:02;9.18;;;2.80;;
35074;SDS011;21260;34.984;32.490;2023-04-21T00:52:29;8.68;;;3.05;;
35074;SDS011;21260;34.984;32.490;2023-04-21T00:54:56;8.30;;;3.28;;
35074;SDS011;21260;34.984;32.490;2023-04-21T00:57:23;6.65;;;2.95;;
35074;SDS011;21260;34.984;32.490;2023-04-21T00:59:51;8.73;;;3.10;;
35074;SDS011;21260;34.984;32.490;2023-04-21T01:02:18;6.80;;;3.20;;
35074;SDS011;21260;34.984;32.490;2023-04-21T01:04:44;9.05;;;3.00;;
35074;SDS011;21260;34.984;32.490;2023-04-21T01:07:11;8.57;;;3.40;;
35074;SDS011;21260;34.984;32.490;2023-04-21T01:09:37;10.32;;;3.00;;
35074;SDS011;21260;34.984;32.490;2023-04-21T01:12:09;8.97;;;2.80;;
35074;SDS011;21260;34.984;32.490;2023-04-21T01:14:38;7.63;;;3.00;;
35074;SDS011;21260;34.984;32.490;2023-04-21T01:17:05;8.30;;;3.03;;
35074;SDS011;21260;34.984;32.490;2023-04-21T01:19:34;10.63;;;3.28;;
35074;SDS011;21260;34.984;32.490;2023-04-21T01:22:08;10.73;;;3.10;;
35074;SDS011;21260;34.984;32.490;2023-04-21T01:27:15;12.35;;;3.45;;
35074;SDS011;21260;34.984;32.490;2023-04-21T01:29:43;8.45;;;3.10;;
35074;SDS011;21260;34.984;32.490;2023-04-21T01:32:13;8.00;;;3.15;;
35074;SDS011;21260;34.984;32.490;2023-04-21T01:34:43;10.30;;;3.08;;
35074;SDS011;21260;34.984;32.490;2023-04-21T01:37:10;11.05;;;3.15;;
35074;SDS011;21260;34.984;32.490;2023-04-21T01:39:43;9.82;;;3.05;;
35074;SDS011;21260;34.984;32.490;2023-04-21T01:42:12;11.07;;;3.43;;
35074;SDS011;21260;34.984;32.490;2023-04-21T01:44:39;7.13;;;3.10;;
35074;SDS011;21260;34.984;32.490;2023-04-21T01:47:05;9.07;;;3.20;;
35074;SDS011;21260;34.984;32.490;2023-04-21T01:49:32;10.07;;;3.30;;
35074;SDS011;21260;34.984;32.490;2023-04-21T01:51:58;8.20;;;2.80;;
35074;SDS011;21260;34.984;32.490;2023-04-21T01:54:24;8.82;;;3.38;;
35074;SDS011;21260;34.984;32.490;2023-04-21T01:56:51;8.43;;;3.30;;
35074;SDS011;21260;34.984;32.490;2023-04-21T01:59:17;8.68;;;3.10;;
35074;SDS011;21260;34.984;32.490;2023-04-21T02:01:43;9.50;;;3.15;;
35074;SDS011;21260;34.984;32.490;2023-04-21T02:04:10;7.72;;;2.90;;
35074;SDS011;21260;34.984;32.490;2023-04-21T02:06:36;10.50;;;3.70;;
35074;SDS011;21260;34.984;32.490;2023-04-21T02:09:03;9.63;;;3.42;;
35074;SDS011;21260;34.984;32.490;2023-04-21T02:11:29;9.27;;;3.03;;
35074;SDS011;21260;34.984;32.490;2023-04-21T02:13:56;11.63;;;3.27;;
35074;SDS011;21260;34.984;32.490;2023-04-21T02:16:22;10.35;;;3.30;;
35074;SDS011;21260;34.984;32.490;2023-04-21T02:18:51;7.45;;;3.03;;
35074;SDS011;21260;34.984;32.490;2023-04-21T02:21:19;8.00;;;3.17;;
35074;SDS011;21260;34.984;32.490;2023-04-21T02:23:46;10.45;;;3.33;;
35074;SDS011;21260;34.984;32.490;2023-04-21T02:26:13;11.13;;;3.40;;
35074;SDS011;21260;34.984;32.490;2023-04-21T02:28:39;9.85;;;3.50;;
35074;SDS011;21260;34.984;32.490;2023-04-21T02:31:06;9.63;;;3.47;;
35074;SDS011;21260;34.984;32.490;2023-04-21T02:33:32;9.00;;;3.17;;
35074;SDS011;21260;34.984;32.490;2023-04-21T02:36:00;7.47;;;3.33;;
35074;SDS011;21260;34.984;32.490;2023-04-21T02:38:26;11.57;;;3.35;;
35074;SDS011;21260;34.984;32.490;2023-04-21T02:40:52;9.52;;;3.45;;
35074;SDS011;21260;34.984;32.490;2023-04-21T02:43:18;9.33;;;3.57;;
35074;SDS011;21260;34.984;32.490;2023-04-21T02:45:44;10.68;;;3.28;;
35074;SDS011;21260;34.984;32.490;2023-04-21T02:48:11;8.38;;;3.47;;
35074;SDS011;21260;34.984;32.490;2023-04-21T02:50:38;10.30;;;3.47;;
35074;SDS011;21260;34.984;32.490;2023-04-21T02:53:04;8.63;;;3.25;;
35074;SDS011;21260;34.984;32.490;2023-04-21T02:55:31;6.27;;;3.00;;
35074;SDS011;21260;34.984;32.490;2023-04-21T02:57:57;7.80;;;3.25;;
35074;SDS011;21260;34.984;32.490;2023-04-21T03:00:23;9.32;;;3.50;;
35074;SDS011;21260;34.984;32.490;2023-04-21T03:02:50;9.73;;;3.42;;
35074;SDS011;21260;34.984;32.490;2023-04-21T03:05:17;7.38;;;3.35;;
35074;SDS011;21260;34.984;32.490;2023-04-21T03:07:44;7.63;;;3.20;;
35074;SDS011;21260;34.984;32.490;2023-04-21T03:10:10;9.27;;;3.03;;
35074;SDS011;21260;34.984;32.490;2023-04-21T03:12:36;7.93;;;3.00;;
35074;SDS011;21260;34.984;32.490;2023-04-21T03:15:03;7.05;;;3.20;;
35074;SDS011;21260;34.984;32.490;2023-04-21T03:17:29;9.18;;;3.30;;
35074;SDS011;21260;34.984;32.490;2023-04-21T03:19:55;8.77;;;3.28;;
35074;SDS011;21260;34.984;32.490;2023-04-21T03:22:22;8.55;;;3.10;;
35074;SDS011;21260;34.984;32.490;2023-04-21T03:24:48;9.73;;;3.30;;
35074;SDS011;21260;34.984;32.490;2023-04-21T03:27:14;10.88;;;3.35;;
35074;SDS011;21260;34.984;32.490;2023-04-21T03:29:40;9.75;;;3.40;;
35074;SDS011;21260;34.984;32.490;2023-04-21T03:32:07;7.68;;;3.00;;
35074;SDS011;21260;34.984;32.490;2023-04-21T03:34:33;7.20;;;3.07;;
35074;SDS011;21260;34.984;32.490;2023-04-21T03:36:59;8.23;;;3.33;;
35074;SDS011;21260;34.984;32.490;2023-04-21T03:39:25;9.30;;;3.50;;
35074;SDS011;21260;34.984;32.490;2023-04-21T03:41:51;12.20;;;3.67;;
35074;SDS011;21260;34.984;32.490;2023-04-21T03:44:18;8.55;;;3.17;;
35074;SDS011;21260;34.984;32.490;2023-04-21T03:46:44;9.40;;;3.47;;
35074;SDS011;21260;34.984;32.490;2023-04-21T03:49:10;9.55;;;3.40;;
35074;SDS011;21260;34.984;32.490;2023-04-21T03:51:36;7.95;;;3.47;;
35074;SDS011;21260;34.984;32.490;2023-04-21T03:54:02;8.40;;;3.47;;
35074;SDS011;21260;34.984;32.490;2023-04-21T03:56:29;9.00;;;3.50;;
35074;SDS011;21260;34.984;32.490;2023-04-21T03:58:55;9.88;;;3.60;;
35074;SDS011;21260;34.984;32.490;2023-04-21T04:01:21;8.88;;;3.42;;
35074;SDS011;21260;34.984;32.490;2023-04-21T04:03:47;12.23;;;3.67;;
35074;SDS011;21260;34.984;32.490;2023-04-21T04:06:13;11.32;;;3.58;;
35074;SDS011;21260;34.984;32.490;2023-04-21T04:08:39;9.77;;;3.60;;
35074;SDS011;21260;34.984;32.490;2023-04-21T04:11:06;11.20;;;3.40;;
35074;SDS011;21260;34.984;32.490;2023-04-21T04:13:32;9.00;;;3.17;;
35074;SDS011;21260;34.984;32.490;2023-04-21T04:15:58;9.27;;;3.60;;
35074;SDS011;21260;34.984;32.490;2023-04-21T04:18:24;6.78;;;3.17;;
35074;SDS011;21260;34.984;32.490;2023-04-21T04:20:50;8.85;;;3.50;;
35074;SDS011;21260;34.984;32.490;2023-04-21T04:23:16;8.88;;;3.42;;
35074;SDS011;21260;34.984;32.490;2023-04-21T04:25:43;12.07;;;4.00;;
35074;SDS011;21260;34.984;32.490;2023-04-21T04:28:12;8.03;;;3.47;;
35074;SDS011;21260;34.984;32.490;2023-04-21T04:30:39;10.48;;;3.80;;
35074;SDS011;21260;34.984;32.490;2023-04-21T04:33:06;11.82;;;3.58;;
35074;SDS011;21260;34.984;32.490;2023-04-21T04:35:34;10.95;;;4.15;;
35074;SDS011;21260;34.984;32.490;2023-04-21T04:38:00;9.80;;;3.63;;
35074;SDS011;21260;34.984;32.490;2023-04-21T04:40:26;9.23;;;3.60;;
35074;SDS011;21260;34.984;32.490;2023-04-21T04:42:54;8.50;;;3.55;;
35074;SDS011;21260;34.984;32.490;2023-04-21T04:45:20;10.90;;;4.00;;
35074;SDS011;21260;34.984;32.490;2023-04-21T04:47:47;10.80;;;3.83;;
35074;SDS011;21260;34.984;32.490;2023-04-21T04:50:14;10.23;;;3.53;;
35074;SDS011;21260;34.984;32.490;2023-04-21T04:52:40;9.27;;;3.40;;
35074;SDS011;21260;34.984;32.490;2023-04-21T04:55:11;12.52;;;3.67;;
35074;SDS011;21260;34.984;32.490;2023-04-21T04:57:38;11.97;;;3.60;;
35074;SDS011;21260;34.984;32.490;2023-04-21T05:00:05;8.40;;;3.25;;
35074;SDS011;21260;34.984;32.490;2023-04-21T05:02:35;8.27;;;3.33;;
35074;SDS011;21260;34.984;32.490;2023-04-21T05:05:03;11.52;;;3.70;;
35074;SDS011;21260;34.984;32.490;2023-04-21T05:07:31;9.80;;;3.43;;
35074;SDS011;21260;34.984;32.490;2023-04-21T05:09:58;13.45;;;3.35;;
35074;SDS011;21260;34.984;32.490;2023-04-21T05:12:25;8.88;;;3.42;;
35074;SDS011;21260;34.984;32.490;2023-04-21T05:14:51;13.32;;;3.58;;
35074;SDS011;21260;34.984;32.490;2023-04-21T05:17:17;9.35;;;3.00;;
35074;SDS011;21260;34.984;32.490;2023-04-21T05:19:43;11.88;;;3.50;;
35074;SDS011;21260;34.984;32.490;2023-04-21T05:22:10;11.10;;;3.47;;
35074;SDS011;21260;34.984;32.490;2023-04-21T05:24:39;7.53;;;3.00;;
35074;SDS011;21260;34.984;32.490;2023-04-21T05:27:07;10.50;;;3.60;;
35074;SDS011;21260;34.984;32.490;2023-04-21T05:29:33;10.80;;;3.28;;
35074;SDS011;21260;34.984;32.490;2023-04-21T05:31:59;9.57;;;3.35;;
35074;SDS011;21260;34.984;32.490;2023-04-21T05:34:26;9.48;;;3.38;;
35074;SDS011;21260;34.984;32.490;2023-04-21T05:36:52;9.70;;;3.10;;
35074;SDS011;21260;34.984;32.490;2023-04-21T05:39:18;11.45;;;3.85;;
35074;SDS011;21260;34.984;32.490;2023-04-21T05:41:44;11.68;;;3.58;;
35074;SDS011;21260;34.984;32.490;2023-04-21T05:44:10;8.48;;;3.20;;
35074;SDS011;21260;34.984;32.490;2023-04-21T05:46:36;13.50;;;3.75;;
35074;SDS011;21260;34.984;32.490;2023-04-21T05:49:03;10.93;;;3.60;;
35074;SDS011;21260;34.984;32.490;2023-04-21T05:51:29;11.20;;;3.25;;
35074;SDS011;21260;34.984;32.490;2023-04-21T05:53:56;9.18;;;3.38;;
35074;SDS011;21260;34.984;32.490;2023-04-21T05:56:22;10.10;;;3.45;;
35074;SDS011;21260;34.984;32.490;2023-04-21T05:58:48;8.13;;;3.17;;
35074;SDS011;21260;34.984;32.490;2023-04-21T06:01:15;9.23;;;3.35;;
35074;SDS011;21260;34.984;32.490;2023-04-21T06:03:41;10.27;;;3.47;;
35074;SDS011;21260;34.984;32.490;2023-04-21T06:06:07;8.50;;;3.20;;
35074;SDS011;21260;34.984;32.490;2023-04-21T06:08:35;8.90;;;3.42;;
35074;SDS011;21260;34.984;32.490;2023-04-21T06:11:02;11.15;;;3.22;;
35074;SDS011;21260;34.984;32.490;2023-04-21T06:13:28;8.48;;;3.28;;
35074;SDS011;21260;34.984;32.490;2023-04-21T06:15:54;9.02;;;3.35;;
35074;SDS011;21260;34.984;32.490;2023-04-21T06:18:20;7.82;;;3.22;;
35074;SDS011;21260;34.984;32.490;2023-04-21T06:20:51;10.15;;;3.05;;
35074;SDS011;21260;34.984;32.490;2023-04-21T06:23:19;10.10;;;3.33;;
35074;SDS011;21260;34.984;32.490;2023-04-21T06:25:46;14.10;;;3.33;;
35074;SDS011;21260;34.984;32.490;2023-04-21T06:28:23;9.07;;;3.15;;
35074;SDS011;21260;34.984;32.490;2023-04-21T06:30:49;9.95;;;3.10;;
35074;SDS011;21260;34.984;32.490;2023-04-21T06:33:15;9.13;;;3.08;;
35074;SDS011;21260;34.984;32.490;2023-04-21T06:35:42;7.73;;;3.10;;
35074;SDS011;21260;34.984;32.490;2023-04-21T06:38:08;9.18;;;2.80;;
35074;SDS011;21260;34.984;32.490;2023-04-21T06:40:34;9.60;;;3.17;;
35074;SDS011;21260;34.984;32.490;2023-04-21T06:43:01;7.90;;;2.53;;
35074;SDS011;21260;34.984;32.490;2023-04-21T06:45:27;9.07;;;2.95;;
35074;SDS011;21260;34.984;32.490;2023-04-21T06:47:53;9.00;;;3.00;;
35074;SDS011;21260;34.984;32.490;2023-04-21T06:50:19;6.22;;;2.72;;
35074;SDS011;21260;34.984;32.490;2023-04-21T06:52:45;7.78;;;2.60;;
35074;SDS011;21260;34.984;32.490;2023-04-21T06:55:12;8.00;;;2.63;;
35074;SDS011;21260;34.984;32.490;2023-04-21T06:57:38;9.68;;;2.58;;
35074;SDS011;21260;34.984;32.490;2023-04-21T07:00:04;7.03;;;2.65;;
35074;SDS011;21260;34.984;32.490;2023-04-21T07:02:31;8.18;;;2.78;;
35074;SDS011;21260;34.984;32.490;2023-04-21T07:04:58;8.50;;;2.90;;
35074;SDS011;21260;34.984;32.490;2023-04-21T07:07:24;7.80;;;2.70;;
35074;SDS011;21260;34.984;32.490;2023-04-21T07:09:50;7.38;;;2.60;;
35074;SDS011;21260;34.984;32.490;2023-04-21T07:12:16;7.03;;;2.70;;
35074;SDS011;21260;34.984;32.490;2023-04-21T07:14:42;7.97;;;3.00;;
35074;SDS011;21260;34.984;32.490;2023-04-21T07:17:09;7.75;;;2.80;;
35074;SDS011;21260;34.984;32.490;2023-04-21T07:19:35;4.55;;;2.10;;
35074;SDS011;21260;34.984;32.490;2023-04-21T07:22:01;10.07;;;2.72;;
35074;SDS011;21260;34.984;32.490;2023-04-21T07:24:28;5.45;;;2.05;;
35074;SDS011;21260;34.984;32.490;2023-04-21T07:26:54;6.07;;;2.38;;
35074;SDS011;21260;34.984;32.490;2023-04-21T07:29:20;4.78;;;1.85;;
35074;SDS011;21260;34.984;32.490;2023-04-21T07:31:46;5.10;;;1.90;;
35074;SDS011;21260;34.984;32.490;2023-04-21T07:34:13;4.53;;;2.00;;
35074;SDS011;21260;34.984;32.490;2023-04-21T07:36:40;8.40;;;2.40;;
35074;SDS011;21260;34.984;32.490;2023-04-21T07:39:07;5.70;;;2.17;;
35074;SDS011;21260;34.984;32.490;2023-04-21T07:41:34;5.80;;;2.30;;
35074;SDS011;21260;34.984;32.490;2023-04-21T07:44:00;7.18;;;2.35;;
35074;SDS011;21260;34.984;32.490;2023-04-21T07:46:26;7.95;;;2.60;;
35074;SDS011;21260;34.984;32.490;2023-04-21T07:48:56;6.20;;;2.40;;
35074;SDS011;21260;34.984;32.490;2023-04-21T07:51:23;5.53;;;2.42;;
35074;SDS011;21260;34.984;32.490;2023-04-21T07:53:54;7.10;;;2.53;;
35074;SDS011;21260;34.984;32.490;2023-04-21T07:56:20;6.15;;;2.30;;
35074;SDS011;21260;34.984;32.490;2023-04-21T07:58:46;5.82;;;2.35;;
35074;SDS011;21260;34.984;32.490;2023-04-21T08:01:13;6.60;;;2.47;;
35074;SDS011;21260;34.984;32.490;2023-04-21T08:03:39;7.13;;;2.35;;
35074;SDS011;21260;34.984;32.490;2023-04-21T08:06:06;6.78;;;2.60;;
35074;SDS011;21260;34.984;32.490;2023-04-21T08:08:32;7.85;;;2.60;;
35074;SDS011;21260;34.984;32.490;2023-04-21T08:10:59;6.50;;;2.40;;
35074;SDS011;21260;34.984;32.490;2023-04-21T08:13:25;4.30;;;2.20;;
35074;SDS011;21260;34.984;32.490;2023-04-21T08:15:52;6.03;;;2.42;;
35074;SDS011;21260;34.984;32.490;2023-04-21T08:18:19;8.23;;;2.50;;
35074;SDS011;21260;34.984;32.490;2023-04-21T08:20:45;6.28;;;2.40;;
35074;SDS011;21260;34.984;32.490;2023-04-21T08:23:13;6.13;;;2.40;;
35074;SDS011;21260;34.984;32.490;2023-04-21T08:25:40;6.47;;;2.30;;
35074;SDS011;21260;34.984;32.490;2023-04-21T08:28:06;4.88;;;2.55;;
35074;SDS011;21260;34.984;32.490;2023-04-21T08:30:33;5.65;;;2.40;;
35074;SDS011;21260;34.984;32.490;2023-04-21T08:32:59;6.43;;;2.47;;
35074;SDS011;21260;34.984;32.490;2023-04-21T08:35:26;9.55;;;2.63;;
35074;SDS011;21260;34.984;32.490;2023-04-21T08:37:53;9.27;;;3.15;;
35074;SDS011;21260;34.984;32.490;2023-04-21T08:40:19;10.15;;;3.00;;
35074;SDS011;21260;34.984;32.490;2023-04-21T08:42:47;7.40;;;2.75;;
35074;SDS011;21260;34.984;32.490;2023-04-21T08:45:13;8.43;;;2.95;;
35074;SDS011;21260;34.984;32.490;2023-04-21T08:47:39;9.23;;;2.92;;
35074;SDS011;21260;34.984;32.490;2023-04-21T08:50:06;8.93;;;2.60;;
35074;SDS011;21260;34.984;32.490;2023-04-21T08:52:38;9.85;;;2.90;;
35074;SDS011;21260;34.984;32.490;2023-04-21T08:55:05;8.98;;;2.90;;
35074;SDS011;21260;34.984;32.490;2023-04-21T08:57:33;8.05;;;2.90;;
35074;SDS011;21260;34.984;32.490;2023-04-21T08:59:59;7.15;;;2.88;;
35074;SDS011;21260;34.984;32.490;2023-04-21T09:02:25;7.77;;;2.60;;
35074;SDS011;21260;34.984;32.490;2023-04-21T09:04:52;9.13;;;2.78;;
35074;SDS011;21260;34.984;32.490;2023-04-21T09:07:34;8.27;;;2.63;;
35074;SDS011;21260;34.984;32.490;2023-04-21T09:10:05;7.40;;;2.60;;
35074;SDS011;21260;34.984;32.490;2023-04-21T09:12:32;9.02;;;2.78;;
35074;SDS011;21260;34.984;32.490;2023-04-21T09:14:59;6.72;;;2.70;;
35074;SDS011;21260;34.984;32.490;2023-04-21T09:17:30;7.55;;;2.45;;
35074;SDS011;21260;34.984;32.490;2023-04-21T09:20:17;7.47;;;2.50;;
35074;SDS011;21260;34.984;32.490;2023-04-21T09:22:49;8.35;;;2.72;;
35074;SDS011;21260;34.984;32.490;2023-04-21T09:25:16;6.43;;;2.50;;
35074;SDS011;21260;34.984;32.490;2023-04-21T09:27:45;6.88;;;2.50;;
35074;SDS011;21260;34.984;32.490;2023-04-21T09:30:14;6.50;;;2.35;;
35074;SDS011;21260;34.984;32.490;2023-04-21T09:32:44;9.10;;;2.60;;
35074;SDS011;21260;34.984;32.490;2023-04-21T09:35:10;8.02;;;2.53;;
35074;SDS011;21260;34.984;32.490;2023-04-21T09:37:37;5.38;;;2.20;;
35074;SDS011;21260;34.984;32.490;2023-04-21T09:40:07;5.95;;;2.40;;
35074;SDS011;21260;34.984;32.490;2023-04-21T09:42:38;6.43;;;2.30;;
35074;SDS011;21260;34.984;32.490;2023-04-21T09:45:06;4.03;;;2.13;;
35074;SDS011;21260;34.984;32.490;2023-04-21T09:47:36;3.90;;;1.80;;
35074;SDS011;21260;34.984;32.490;2023-04-21T09:50:07;5.50;;;2.15;;
35074;SDS011;21260;34.984;32.490;2023-04-21T09:52:36;6.07;;;2.38;;
35074;SDS011;21260;34.984;32.490;2023-04-21T09:55:06;6.53;;;2.60;;
35074;SDS011;21260;34.984;32.490;2023-04-21T09:57:40;7.85;;;2.47;;
35074;SDS011;21260;34.984;32.490;2023-04-21T10:00:09;7.07;;;2.40;;
35074;SDS011;21260;34.984;32.490;2023-04-21T10:02:45;6.88;;;2.67;;
35074;SDS011;21260;34.984;32.490;2023-04-21T10:05:14;6.85;;;2.60;;
35074;SDS011;21260;34.984;32.490;2023-04-21T10:07:42;5.55;;;2.47;;
35074;SDS011;21260;34.984;32.490;2023-04-21T10:10:26;5.00;;;2.70;;
35074;SDS011;21260;34.984;32.490;2023-04-21T10:12:59;7.00;;;2.60;;
35074;SDS011;21260;34.984;32.490;2023-04-21T10:15:30;5.28;;;2.45;;
35074;SDS011;21260;34.984;32.490;2023-04-21T10:18:21;6.82;;;2.63;;
35074;SDS011;21260;34.984;32.490;2023-04-21T10:20:50;6.20;;;2.50;;
35074;SDS011;21260;34.984;32.490;2023-04-21T10:23:25;5.53;;;2.78;;
35074;SDS011;21260;34.984;32.490;2023-04-21T10:28:44;7.20;;;2.50;;
35074;SDS011;21260;34.984;32.490;2023-04-21T10:36:41;8.30;;;2.80;;
35074;SDS011;21260;34.984;32.490;2023-04-21T10:39:29;7.75;;;2.42;;
35074;SDS011;21260;34.984;32.490;2023-04-21T10:47:27;7.25;;;2.53;;
35074;SDS011;21260;34.984;32.490;2023-04-21T10:50:10;6.68;;;2.70;;
35074;SDS011;21260;34.984;32.490;2023-04-21T10:52:52;6.15;;;2.60;;
35074;SDS011;21260;34.984;32.490;2023-04-21T10:55:20;6.63;;;2.50;;
35074;SDS011;21260;34.984;32.490;2023-04-21T10:57:51;5.22;;;2.30;;
35074;SDS011;21260;34.984;32.490;2023-04-21T11:00:18;5.93;;;2.20;;
35074;SDS011;21260;34.984;32.490;2023-04-21T11:02:57;6.00;;;2.60;;
35074;SDS011;21260;34.984;32.490;2023-04-21T11:05:30;7.65;;;2.60;;
35074;SDS011;21260;34.984;32.490;2023-04-21T11:08:03;5.50;;;2.35;;
35074;SDS011;21260;34.984;32.490;2023-04-21T11:10:48;8.18;;;3.00;;
35074;SDS011;21260;34.984;32.490;2023-04-21T11:13:22;8.17;;;2.63;;
35074;SDS011;21260;34.984;32.490;2023-04-21T11:15:55;5.75;;;2.55;;
35074;SDS011;21260;34.984;32.490;2023-04-21T11:21:20;5.10;;;2.53;;
35074;SDS011;21260;34.984;32.490;2023-04-21T11:23:53;5.25;;;2.50;;
35074;SDS011;21260;34.984;32.490;2023-04-21T11:26:34;6.85;;;2.70;;
35074;SDS011;21260;34.984;32.490;2023-04-21T11:29:07;6.90;;;2.72;;
35074;SDS011;21260;34.984;32.490;2023-04-21T11:31:36;5.93;;;2.60;;
35074;SDS011;21260;34.984;32.490;2023-04-21T11:34:05;4.88;;;2.40;;
35074;SDS011;21260;34.984;32.490;2023-04-21T11:36:32;5.35;;;2.60;;
35074;SDS011;21260;34.984;32.490;2023-04-21T11:39:10;5.35;;;2.63;;
35074;SDS011;21260;34.984;32.490;2023-04-21T11:41:38;5.90;;;2.50;;
35074;SDS011;21260;34.984;32.490;2023-04-21T11:44:10;7.45;;;2.85;;
35074;SDS011;21260;34.984;32.490;2023-04-21T11:46:44;6.25;;;2.80;;
35074;SDS011;21260;34.984;32.490;2023-04-21T11:49:11;6.20;;;2.78;;
35074;SDS011;21260;34.984;32.490;2023-04-21T11:51:41;6.32;;;2.90;;
35074;SDS011;21260;34.984;32.490;2023-04-21T11:54:09;4.43;;;2.60;;
35074;SDS011;21260;34.984;32.490;2023-04-21T11:56:38;4.35;;;2.67;;
35074;SDS011;21260;34.984;32.490;2023-04-21T11:59:07;7.47;;;2.80;;
35074;SDS011;21260;34.984;32.490;2023-04-21T12:01:41;5.85;;;2.78;;
35074;SDS011;21260;34.984;32.490;2023-04-21T12:04:13;5.97;;;2.63;;
35074;SDS011;21260;34.984;32.490;2023-04-21T12:06:41;7.23;;;2.80;;
35074;SDS011;21260;34.984;32.490;2023-04-21T12:09:15;10.82;;;3.28;;
35074;SDS011;21260;34.984;32.490;2023-04-21T12:11:46;6.97;;;2.85;;
35074;SDS011;21260;34.984;32.490;2023-04-21T12:14:18;5.93;;;2.50;;
35074;SDS011;21260;34.984;32.490;2023-04-21T12:16:47;4.93;;;2.70;;
35074;SDS011;21260;34.984;32.490;2023-04-21T12:19:22;6.97;;;2.67;;
35074;SDS011;21260;34.984;32.490;2023-04-21T12:21:59;7.47;;;2.90;;
35074;SDS011;21260;34.984;32.490;2023-04-21T12:24:25;7.47;;;2.90;;
35074;SDS011;21260;34.984;32.490;2023-04-21T12:26:51;7.68;;;2.85;;
35074;SDS011;21260;34.984;32.490;2023-04-21T12:29:18;5.93;;;2.70;;
35074;SDS011;21260;34.984;32.490;2023-04-21T12:31:45;6.38;;;2.80;;
35074;SDS011;21260;34.984;32.490;2023-04-21T12:34:11;8.63;;;3.20;;
35074;SDS011;21260;34.984;32.490;2023-04-21T12:36:37;11.57;;;2.80;;
35074;SDS011;21260;34.984;32.490;2023-04-21T12:39:04;7.00;;;3.00;;
35074;SDS011;21260;34.984;32.490;2023-04-21T12:41:30;8.18;;;2.75;;
35074;SDS011;21260;34.984;32.490;2023-04-21T12:43:58;7.43;;;2.95;;
35074;SDS011;21260;34.984;32.490;2023-04-21T12:46:25;6.25;;;3.08;;
35074;SDS011;21260;34.984;32.490;2023-04-21T12:48:51;7.28;;;2.90;;
35074;SDS011;21260;34.984;32.490;2023-04-21T12:51:18;7.45;;;2.80;;
35074;SDS011;21260;34.984;32.490;2023-04-21T12:53:44;8.47;;;3.30;;
35074;SDS011;21260;34.984;32.490;2023-04-21T12:56:10;6.00;;;2.75;;
35074;SDS011;21260;34.984;32.490;2023-04-21T12:58:37;8.45;;;3.17;;
35074;SDS011;21260;34.984;32.490;2023-04-21T13:01:05;10.70;;;2.90;;
35074;SDS011;21260;34.984;32.490;2023-04-21T13:03:36;10.23;;;2.95;;
35074;SDS011;21260;34.984;32.490;2023-04-21T13:06:02;8.77;;;3.40;;
35074;SDS011;21260;34.984;32.490;2023-04-21T13:08:28;7.93;;;3.00;;
35074;SDS011;21260;34.984;32.490;2023-04-21T13:10:54;6.45;;;2.80;;
35074;SDS011;21260;34.984;32.490;2023-04-21T13:13:21;5.10;;;3.00;;
35074;SDS011;21260;34.984;32.490;2023-04-21T13:15:47;8.00;;;3.17;;
35074;SDS011;21260;34.984;32.490;2023-04-21T13:18:13;5.53;;;2.88;;
35074;SDS011;21260;34.984;32.490;2023-04-21T13:20:39;8.60;;;3.30;;
35074;SDS011;21260;34.984;32.490;2023-04-21T13:23:06;8.73;;;3.20;;
35074;SDS011;21260;34.984;32.490;2023-04-21T13:25:33;7.63;;;3.20;;
35074;SDS011;21260;34.984;32.490;2023-04-21T13:27:59;6.57;;;2.90;;
35074;SDS011;21260;34.984;32.490;2023-04-21T13:30:25;6.93;;;3.03;;
35074;SDS011;21260;34.984;32.490;2023-04-21T13:32:54;5.13;;;2.83;;
35074;SDS011;21260;34.984;32.490;2023-04-21T13:35:20;8.35;;;3.03;;
35074;SDS011;21260;34.984;32.490;2023-04-21T13:37:47;6.40;;;3.00;;
35074;SDS011;21260;34.984;32.490;2023-04-21T13:40:15;6.82;;;3.15;;
35074;SDS011;21260;34.984;32.490;2023-04-21T13:42:41;7.20;;;3.15;;
35074;SDS011;21260;34.984;32.490;2023-04-21T13:45:07;8.93;;;2.90;;
35074;SDS011;21260;34.984;32.490;2023-04-21T13:47:34;6.15;;;3.00;;
35074;SDS011;21260;34.984;32.490;2023-04-21T13:50:01;5.90;;;2.90;;
35074;SDS011;21260;34.984;32.490;2023-04-21T13:52:29;4.70;;;2.70;;
35074;SDS011;21260;34.984;32.490;2023-04-21T13:54:55;6.18;;;2.85;;
35074;SDS011;21260;34.984;32.490;2023-04-21T13:57:22;5.47;;;2.78;;
35074;SDS011;21260;34.984;32.490;2023-04-21T13:59:49;4.95;;;2.90;;
35074;SDS011;21260;34.984;32.490;2023-04-21T14:02:16;6.50;;;2.97;;
35074;SDS011;21260;34.984;32.490;2023-04-21T14:04:42;6.25;;;3.10;;
35074;SDS011;21260;34.984;32.490;2023-04-21T14:07:09;7.70;;;3.20;;
35074;SDS011;21260;34.984;32.490;2023-04-21T14:09:35;4.33;;;2.73;;
35074;SDS011;21260;34.984;32.490;2023-04-21T14:12:02;5.30;;;3.00;;
35074;SDS011;21260;34.984;32.490;2023-04-21T14:14:28;5.75;;;2.80;;
35074;SDS011;21260;34.984;32.490;2023-04-21T14:16:54;7.68;;;2.80;;
35074;SDS011;21260;34.984;32.490;2023-04-21T14:19:21;5.43;;;2.72;;
35074;SDS011;21260;34.984;32.490;2023-04-21T14:21:47;5.55;;;2.85;;
35074;SDS011;21260;34.984;32.490;2023-04-21T14:24:13;7.00;;;2.70;;
35074;SDS011;21260;34.984;32.490;2023-04-21T14:26:40;7.53;;;2.70;;
35074;SDS011;21260;34.984;32.490;2023-04-21T14:29:06;6.95;;;2.85;;
35074;SDS011;21260;34.984;32.490;2023-04-21T14:31:32;5.88;;;2.80;;
35074;SDS011;21260;34.984;32.490;2023-04-21T14:33:59;5.80;;;2.95;;
35074;SDS011;21260;34.984;32.490;2023-04-21T14:36:25;7.77;;;3.10;;
35074;SDS011;21260;34.984;32.490;2023-04-21T14:38:52;8.27;;;3.33;;
35074;SDS011;21260;34.984;32.490;2023-04-21T14:41:18;8.52;;;3.40;;
35074;SDS011;21260;34.984;32.490;2023-04-21T14:43:44;8.53;;;2.90;;
35074;SDS011;21260;34.984;32.490;2023-04-21T14:46:11;7.55;;;3.20;;
35074;SDS011;21260;34.984;32.490;2023-04-21T14:48:37;5.93;;;3.10;;
35074;SDS011;21260;34.984;32.490;2023-04-21T14:51:03;8.88;;;3.40;;
35074;SDS011;21260;34.984;32.490;2023-04-21T14:53:33;7.32;;;3.50;;
35074;SDS011;21260;34.984;32.490;2023-04-21T14:55:59;6.93;;;3.30;;